Time;durP1;ratioP1;P1;durP2;ratioP2;P2;SDS_P1;SDS_P2;PMS_P1;PMS_P2;Temp;Humidity;BMP_temperature;BMP_pressure;BME280_temperature;BME280_humidity;BME280_pressure;Samples;Min_cycle;Max_cycle;Signal;HPM_P1;HPM_P2
2021/05/02 00:00:22;;;;;;;0.73;0.68;;;6.40;73.90;;;;;;5095219;28;20446;-73
2021/05/02 00:02:48;;;;;;;0.88;0.80;;;6.40;73.90;;;;;;5113673;28;20044;-73
2021/05/02 00:05:16;;;;;;;1.10;0.82;;;6.40;73.90;;;;;;5095757;28;20063;-73
2021/05/02 00:07:43;;;;;;;1.13;0.77;;;6.40;73.90;;;;;;5077353;28;20119;-73
2021/05/02 00:10:11;;;;;;;0.90;0.75;;;6.40;74.00;;;;;;5113633;28;20092;-73
2021/05/02 00:12:38;;;;;;;1.42;0.73;;;6.40;74.00;;;;;;5094850;28;20443;-72
2021/05/02 00:15:07;;;;;;;1.02;0.75;;;6.40;74.10;;;;;;5113725;28;20039;-73
2021/05/02 00:17:38;;;;;;;1.10;0.70;;;6.30;74.10;;;;;;5095303;28;20043;-73
2021/05/02 00:20:05;;;;;;;0.93;0.80;;;6.40;74.30;;;;;;5113641;28;20036;-73
2021/05/02 00:22:34;;;;;;;1.00;0.70;;;6.40;74.40;;;;;;5113459;28;20044;-73
2021/05/02 00:25:02;;;;;;;1.05;0.80;;;6.40;74.40;;;;;;5095245;28;20039;-73
2021/05/02 00:27:28;;;;;;;0.85;0.82;;;6.40;74.50;;;;;;5077997;28;20039;-73
2021/05/02 00:29:54;;;;;;;0.70;0.65;;;6.30;74.60;;;;;;5094898;28;20511;-73
2021/05/02 00:32:21;;;;;;;0.85;0.70;;;6.30;75.30;;;;;;5112872;28;20488;-73
2021/05/02 00:34:49;;;;;;;0.88;0.50;;;6.20;74.80;;;;;;5113048;28;20043;-73
2021/05/02 00:37:16;;;;;;;0.98;0.50;;;6.20;74.80;;;;;;5094997;28;20498;-73
2021/05/02 00:39:42;;;;;;;0.98;0.70;;;6.20;74.90;;;;;;5094732;28;20043;-74
2021/05/02 00:42:17;;;;;;;0.57;0.50;;;6.20;75.00;;;;;;5113283;28;20217;-74
2021/05/02 00:44:49;;;;;;;0.90;0.65;;;6.10;75.10;;;;;;5112865;28;20039;-73
2021/05/02 00:47:18;;;;;;;0.75;0.60;;;6.10;75.30;;;;;;5112830;28;20462;-74
2021/05/02 00:50:07;;;;;;;1.25;0.80;;;6.10;75.40;;;;;;5112765;28;20086;-74
2021/05/02 00:53:04;;;;;;;0.85;0.60;;;6.10;75.50;;;;;;5113460;28;20420;-73
2021/05/02 00:55:37;;;;;;;0.55;0.50;;;6.10;75.50;;;;;;5095634;28;20044;-73
2021/05/02 00:58:05;;;;;;;1.17;0.93;;;6.00;75.40;;;;;;5077709;28;20036;-72
2021/05/02 01:00:33;;;;;;;1.80;0.75;;;6.20;76.10;;;;;;5095053;28;20063;-72
2021/05/02 01:03:03;;;;;;;1.45;0.80;;;6.10;75.40;;;;;;5112307;28;20090;-73
2021/05/02 01:05:31;;;;;;;1.23;0.80;;;6.10;75.40;;;;;;5077202;28;20047;-73
2021/05/02 01:08:00;;;;;;;1.73;1.05;;;6.10;75.40;;;;;;5112465;28;20095;-73
2021/05/02 01:10:27;;;;;;;2.45;0.98;;;6.20;75.40;;;;;;5113094;28;20065;-74
2021/05/02 01:12:57;;;;;;;1.58;0.90;;;6.20;75.40;;;;;;5112998;28;20381;-73
2021/05/02 01:15:28;;;;;;;0.90;0.82;;;6.20;75.40;;;;;;5112955;28;20047;-73
2021/05/02 01:17:59;;;;;;;0.70;0.60;;;6.20;75.40;;;;;;5112913;28;20131;-73
2021/05/02 01:20:27;;;;;;;1.05;0.80;;;6.20;75.40;;;;;;5094899;28;20040;-73
2021/05/02 01:22:58;;;;;;;0.93;0.73;;;6.20;75.30;;;;;;5112586;28;20493;-73
2021/05/02 01:25:24;;;;;;;0.60;0.60;;;6.20;75.40;;;;;;5112585;28;20040;-73
2021/05/02 01:27:53;;;;;;;0.80;0.70;;;6.30;75.40;;;;;;5112532;28;20032;-74
2021/05/02 01:30:20;;;;;;;1.10;0.82;;;6.30;75.40;;;;;;5094164;28;20040;-74
2021/05/02 01:32:46;;;;;;;0.98;0.88;;;6.30;75.30;;;;;;5094407;28;20492;-74
2021/05/02 01:35:12;;;;;;;1.15;0.70;;;6.30;75.30;;;;;;5112327;28;20067;-74
2021/05/02 01:37:38;;;;;;;1.05;0.70;;;6.40;76.10;;;;;;5112148;28;20470;-72
2021/05/02 01:40:04;;;;;;;1.25;0.80;;;6.30;75.30;;;;;;5112051;28;20043;-73
2021/05/02 01:42:30;;;;;;;1.60;1.00;;;6.40;75.40;;;;;;5112103;28;20093;-73
2021/05/02 01:44:56;;;;;;;1.23;0.80;;;6.40;75.40;;;;;;5093739;28;20039;-72
2021/05/02 01:47:23;;;;;;;0.98;0.73;;;6.50;76.00;;;;;;5093696;28;20429;-73
2021/05/02 01:49:54;;;;;;;1.77;0.65;;;6.50;75.30;;;;;;5111881;28;20120;-73
2021/05/02 01:52:21;;;;;;;0.80;0.50;;;6.50;75.30;;;;;;5094439;28;20499;-73
2021/05/02 01:54:47;;;;;;;1.23;0.85;;;6.60;75.30;;;;;;5112122;28;20047;-73
2021/05/02 01:57:18;;;;;;;0.45;0.45;;;6.50;75.20;;;;;;5111648;28;20047;-73
2021/05/02 01:59:45;;;;;;;;;;;6.50;75.30;;;;;;5093304;28;20118;-73
2021/05/02 02:02:11;;;;;;;0.88;0.57;;;6.50;75.30;;;;;;5111559;28;19922;-73
2021/05/02 02:04:40;;;;;;;0.60;0.60;;;6.40;75.20;;;;;;5076718;28;20126;-73
2021/05/02 02:07:06;;;;;;;1.08;0.77;;;6.40;75.30;;;;;;5112110;28;20044;-73
2021/05/02 02:09:32;;;;;;;1.15;0.60;;;6.30;75.40;;;;;;5094760;28;20112;-73
2021/05/02 02:12:00;;;;;;;0.77;0.60;;;6.30;75.50;;;;;;5080243;28;20126;-72
2021/05/02 02:14:26;;;;;;;1.05;0.60;;;6.20;75.70;;;;;;5115770;28;20126;-73
2021/05/02 02:16:52;;;;;;;0.55;0.38;;;6.20;75.80;;;;;;5096862;28;20047;-73
2021/05/02 02:19:18;;;;;;;0.50;0.40;;;6.20;76.00;;;;;;5115331;28;20383;-73
2021/05/02 02:21:48;;;;;;;0.45;0.40;;;6.10;76.00;;;;;;5079965;28;20039;-73
2021/05/02 02:24:15;;;;;;;0.95;0.40;;;6.10;76.20;;;;;;5114960;28;20507;-72
2021/05/02 02:26:51;;;;;;;0.82;0.40;;;6.00;76.20;;;;;;5079906;28;20038;-73
2021/05/02 02:29:18;;;;;;;0.80;0.70;;;6.00;76.50;;;;;;5097782;28;20096;-73
2021/05/02 02:31:49;;;;;;;0.90;0.65;;;5.90;76.50;;;;;;5114903;28;20039;-74
2021/05/02 02:34:15;;;;;;;0.90;0.50;;;5.90;76.60;;;;;;5096559;28;20092;-73
2021/05/02 02:36:43;;;;;;;0.50;0.50;;;5.80;76.60;;;;;;5097138;28;20040;-73
2021/05/02 02:39:10;;;;;;;0.52;0.45;;;5.70;76.70;;;;;;5094562;28;20446;-72
2021/05/02 02:41:38;;;;;;;0.82;0.47;;;5.70;76.80;;;;;;5115284;28;20556;-73
2021/05/02 02:44:08;;;;;;;0.50;0.50;;;5.90;77.00;;;;;;5096399;28;20044;-73
2021/05/02 02:46:39;;;;;;;0.20;0.20;;;5.80;77.00;;;;;;5114977;28;20481;-73
2021/05/02 02:49:05;;;;;;;;;;;5.70;77.00;;;;;;5079781;28;20043;-73
2021/05/02 02:51:34;;;;;;;0.70;0.30;;;5.80;76.80;;;;;;5114611;28;19919;-72
2021/05/02 02:54:02;;;;;;;1.02;0.47;;;5.80;76.70;;;;;;5114508;28;20039;-73
2021/05/02 02:56:31;;;;;;;1.10;0.52;;;5.80;76.70;;;;;;5096645;28;20054;-73
2021/05/02 02:59:12;;;;;;;0.75;0.50;;;5.80;76.60;;;;;;5114680;28;20044;-72
2021/05/02 03:01:41;;;;;;;0.68;0.38;;;5.80;76.60;;;;;;5095954;28;20401;-73
2021/05/02 03:04:10;;;;;;;1.08;0.60;;;5.90;76.70;;;;;;5095440;28;20134;-73
2021/05/02 03:06:37;;;;;;;0.40;0.40;;;5.80;76.50;;;;;;5114387;28;20493;-73
2021/05/02 03:09:04;;;;;;;0.82;0.50;;;5.90;76.60;;;;;;5078341;28;20497;-73
2021/05/02 03:11:30;;;;;;;0.50;0.43;;;5.90;76.60;;;;;;5095976;28;20129;-73
2021/05/02 03:13:56;;;;;;;0.82;0.63;;;5.90;76.60;;;;;;5096135;28;20479;-73
2021/05/02 03:16:25;;;;;;;1.20;0.60;;;5.90;76.50;;;;;;5095115;28;20043;-73
2021/05/02 03:18:59;;;;;;;0.80;0.70;;;5.90;76.50;;;;;;5114199;28;20044;-73
2021/05/02 03:21:44;;;;;;;0.70;0.60;;;6.00;76.60;;;;;;5080114;28;20039;-73
2021/05/02 03:24:14;;;;;;;0.68;0.60;;;5.90;76.50;;;;;;5114045;28;20138;-72
2021/05/02 03:26:41;;;;;;;0.47;0.40;;;5.90;76.50;;;;;;5095535;28;20081;-73
2021/05/02 03:29:10;;;;;;;0.90;0.63;;;5.90;76.60;;;;;;5113865;28;20036;-73
2021/05/02 03:31:38;;;;;;;0.50;0.50;;;5.90;76.60;;;;;;5094610;28;20059;-73
2021/05/02 03:34:07;;;;;;;0.60;0.60;;;5.90;76.60;;;;;;5113936;28;20489;-73
2021/05/02 03:36:38;;;;;;;0.40;0.40;;;5.90;76.50;;;;;;5114237;28;20045;-73
2021/05/02 03:39:04;;;;;;;;;;;5.80;76.50;;;;;;5079010;28;20042;-72
2021/05/02 03:41:34;;;;;;;0.73;0.40;;;5.90;76.70;;;;;;5113647;28;20330;-73
2021/05/02 03:44:00;;;;;;;0.68;0.40;;;5.90;76.60;;;;;;5078463;28;20498;-73
2021/05/02 03:46:26;;;;;;;0.50;0.45;;;5.90;76.60;;;;;;5113753;28;20082;-73
2021/05/02 03:49:07;;;;;;;0.52;0.52;;;5.90;76.70;;;;;;5113706;28;20398;-73
2021/05/02 03:51:36;;;;;;;0.43;0.43;;;5.90;76.80;;;;;;5093727;28;20166;-73
2021/05/02 03:54:02;;;;;;;1.20;0.50;;;5.90;76.70;;;;;;5113647;28;20059;-73
2021/05/02 03:56:37;;;;;;;0.45;0.40;;;5.90;76.80;;;;;;5078095;28;20133;-73
2021/05/02 03:59:05;;;;;;;0.63;0.40;;;5.80;76.80;;;;;;5113330;28;20047;-73
2021/05/02 04:01:31;;;;;;;0.75;0.35;;;5.80;76.90;;;;;;5095092;28;20443;-73
2021/05/02 04:03:59;;;;;;;0.30;0.30;;;5.80;77.00;;;;;;5095181;28;20045;-73
2021/05/02 04:06:26;;;;;;;0.30;0.30;;;5.70;77.00;;;;;;5095802;28;20044;-73
2021/05/02 04:08:52;;;;;;;1.73;0.47;;;5.60;77.10;;;;;;5114108;28;20046;-73
2021/05/02 04:11:17;;;;;;;0.30;0.30;;;5.60;77.30;;;;;;5095450;28;20039;-73
2021/05/02 04:13:43;;;;;;;0.55;0.30;;;5.60;77.30;;;;;;5113883;28;20051;-73
2021/05/02 04:16:12;;;;;;;0.20;0.20;;;5.50;77.40;;;;;;5093957;28;20443;-73
2021/05/02 04:18:38;;;;;;;0.32;0.28;;;5.50;77.50;;;;;;5095076;28;20047;-73
2021/05/02 04:21:04;;;;;;;0.35;0.30;;;5.50;77.50;;;;;;5095534;28;20047;-73
2021/05/02 04:23:33;;;;;;;0.47;0.30;;;5.50;77.60;;;;;;5077892;28;20043;-73
2021/05/02 04:25:59;;;;;;;0.50;0.50;;;5.50;77.70;;;;;;5113440;28;20036;-73
2021/05/02 04:28:24;;;;;;;0.22;0.22;;;5.40;77.70;;;;;;5113311;28;20036;-73
2021/05/02 04:30:50;;;;;;;0.43;0.32;;;5.30;77.70;;;;;;5113163;28;20051;-73
2021/05/02 04:33:15;;;;;;;0.50;0.47;;;5.30;77.80;;;;;;5113160;28;20043;-73
2021/05/02 04:35:41;;;;;;;0.32;0.32;;;5.30;77.80;;;;;;5077880;28;20039;-73
2021/05/02 04:38:07;;;;;;;0.57;0.40;;;5.30;77.80;;;;;;5113086;28;20047;-73
2021/05/02 04:40:32;;;;;;;0.52;0.50;;;5.30;77.90;;;;;;5095102;28;20039;-72
2021/05/02 04:42:58;;;;;;;0.40;0.40;;;5.30;77.90;;;;;;5093663;28;20063;-72
2021/05/02 04:45:24;;;;;;;0.22;0.22;;;5.30;77.90;;;;;;5078224;28;20039;-73
2021/05/02 04:47:52;;;;;;;0.30;0.20;;;5.20;77.90;;;;;;5113553;28;20127;-73
2021/05/02 04:50:18;;;;;;;1.20;0.45;;;5.20;78.00;;;;;;5094998;28;20462;-73
2021/05/02 04:52:44;;;;;;;0.65;0.30;;;5.20;78.10;;;;;;5112911;28;20039;-73
2021/05/02 04:55:10;;;;;;;0.40;0.40;;;5.10;78.00;;;;;;5094770;28;20104;-72
2021/05/02 04:57:36;;;;;;;0.82;0.40;;;5.10;78.10;;;;;;5095227;28;20040;-72
2021/05/02 05:00:02;;;;;;;0.28;0.20;;;5.10;78.10;;;;;;5112852;28;20027;-72
2021/05/02 05:02:29;;;;;;;0.75;0.40;;;5.10;78.10;;;;;;5077715;28;20040;-73
2021/05/02 05:04:54;;;;;;;0.73;0.40;;;5.10;78.10;;;;;;5094614;28;20082;-72
2021/05/02 05:07:20;;;;;;;0.80;0.50;;;5.10;78.20;;;;;;5113130;28;20055;-72
2021/05/02 05:09:46;;;;;;;0.85;0.50;;;5.10;78.10;;;;;;5093529;28;20032;-73
2021/05/02 05:12:11;;;;;;;0.40;0.40;;;5.10;78.10;;;;;;5113275;28;20095;-73
2021/05/02 05:14:37;;;;;;;0.90;0.50;;;5.20;78.00;;;;;;5113245;28;20067;-73
2021/05/02 05:17:03;;;;;;;1.40;0.40;;;5.20;77.90;;;;;;5095096;28;20046;-73
2021/05/02 05:19:28;;;;;;;0.35;0.30;;;5.20;77.80;;;;;;5112678;28;20046;-75
2021/05/02 05:21:54;;;;;;;0.40;0.40;;;5.30;77.80;;;;;;5112528;28;20039;-75
2021/05/02 05:24:20;;;;;;;0.35;0.35;;;5.30;77.70;;;;;;5113059;28;20465;-75
2021/05/02 05:26:45;;;;;;;0.70;0.52;;;5.30;77.60;;;;;;5112437;28;20032;-72
2021/05/02 05:29:11;;;;;;;0.80;0.40;;;5.30;77.60;;;;;;5112605;28;20036;-72
2021/05/02 05:31:37;;;;;;;0.63;0.38;;;5.30;77.50;;;;;;5076780;28;20032;-73
2021/05/02 05:34:03;;;;;;;0.32;0.32;;;5.40;77.50;;;;;;5112526;28;20047;-73
2021/05/02 05:36:28;;;;;;;0.40;0.40;;;5.40;77.40;;;;;;5077419;28;20052;-73
2021/05/02 05:38:54;;;;;;;0.38;0.30;;;5.50;77.40;;;;;;5094047;28;20032;-73
2021/05/02 05:41:20;;;;;;;1.35;0.50;;;5.50;77.30;;;;;;5112119;28;20042;-73
2021/05/02 05:43:45;;;;;;;0.30;0.30;;;5.50;77.30;;;;;;5112456;28;20134;-73
2021/05/02 05:46:13;;;;;;;0.60;0.32;;;5.60;77.30;;;;;;5116131;28;20039;-72
2021/05/02 05:48:41;;;;;;;0.82;0.50;;;5.60;77.20;;;;;;5097359;28;20039;-73
2021/05/02 05:51:08;;;;;;;2.35;0.40;;;5.70;77.20;;;;;;5115836;28;20047;-74
2021/05/02 05:53:35;;;;;;;0.52;0.52;;;5.80;77.10;;;;;;5115668;28;20036;-74
2021/05/02 05:56:01;;;;;;;1.00;0.50;;;5.80;77.00;;;;;;5115668;28;20048;-74
2021/05/02 05:58:29;;;;;;;0.40;0.30;;;5.90;76.80;;;;;;5080476;28;20169;-74
2021/05/02 06:00:56;;;;;;;0.82;0.50;;;6.00;76.70;;;;;;5115449;28;20124;-74
2021/05/02 06:03:22;;;;;;;0.98;0.50;;;6.10;76.60;;;;;;5097043;28;20127;-74
2021/05/02 06:05:47;;;;;;;0.68;0.60;;;6.20;76.40;;;;;;5115810;28;20122;-74
2021/05/02 06:08:14;;;;;;;1.52;0.60;;;6.30;76.30;;;;;;5115535;28;20076;-74
2021/05/02 06:10:40;;;;;;;0.50;0.50;;;6.30;76.10;;;;;;5097098;28;20093;-74
2021/05/02 06:13:06;;;;;;;0.50;0.50;;;6.40;76.00;;;;;;5095624;28;20454;-73
2021/05/02 06:15:32;;;;;;;0.50;0.50;;;6.50;76.00;;;;;;5096838;28;20124;-73
2021/05/02 06:17:57;;;;;;;0.52;0.40;;;6.60;75.80;;;;;;5080490;28;20039;-73
2021/05/02 06:20:23;;;;;;;0.40;0.40;;;6.70;75.80;;;;;;5096034;28;20098;-73
2021/05/02 06:22:50;;;;;;;0.73;0.40;;;6.70;75.60;;;;;;5114964;28;20112;-72
2021/05/02 06:25:16;;;;;;;0.63;0.52;;;6.80;75.60;;;;;;5115265;28;20036;-72
2021/05/02 06:27:41;;;;;;;1.08;0.57;;;6.90;75.50;;;;;;5096634;28;20051;-73
2021/05/02 06:30:08;;;;;;;1.33;0.50;;;7.00;75.30;;;;;;5114952;28;20089;-73
2021/05/02 06:32:36;;;;;;;2.15;0.70;;;7.10;75.20;;;;;;5115214;28;20043;-74
2021/05/02 06:35:02;;;;;;;0.80;0.55;;;7.20;75.00;;;;;;5115314;28;20032;-73
2021/05/02 06:37:28;;;;;;;0.55;0.47;;;7.30;74.90;;;;;;5097413;28;20537;-74
2021/05/02 06:39:55;;;;;;;1.15;0.63;;;7.30;74.80;;;;;;5097010;28;20078;-73
2021/05/02 06:42:21;;;;;;;1.02;0.68;;;7.40;74.70;;;;;;5097116;28;20043;-73
2021/05/02 06:44:47;;;;;;;1.23;0.50;;;7.50;74.60;;;;;;5094717;28;20048;-73
2021/05/02 06:47:13;;;;;;;1.17;0.77;;;7.60;74.40;;;;;;5095679;28;20036;-73
2021/05/02 06:49:38;;;;;;;1.20;0.80;;;7.70;74.30;;;;;;5096379;28;20040;-73
2021/05/02 06:52:04;;;;;;;1.10;0.60;;;7.70;74.10;;;;;;5114828;28;20038;-73
2021/05/02 06:54:30;;;;;;;1.35;0.40;;;7.80;74.10;;;;;;5062649;28;20043;-73
2021/05/02 06:56:56;;;;;;;1.08;0.50;;;8.00;74.00;;;;;;5095979;28;20122;-74
2021/05/02 06:59:22;;;;;;;1.10;0.68;;;8.00;73.90;;;;;;5079698;28;20150;-73
2021/05/02 07:01:47;;;;;;;0.60;0.40;;;8.20;73.90;;;;;;5115033;28;20047;-73
2021/05/02 07:04:13;;;;;;;1.23;0.40;;;8.20;73.70;;;;;;5079611;28;20041;-73
2021/05/02 07:06:39;;;;;;;0.82;0.60;;;8.30;73.50;;;;;;5115152;28;20047;-74
2021/05/02 07:09:05;;;;;;;0.98;0.60;;;8.30;73.40;;;;;;5096977;28;20072;-73
2021/05/02 07:11:31;;;;;;;2.20;0.80;;;8.30;73.30;;;;;;5096398;28;20516;-75
2021/05/02 07:13:57;;;;;;;0.90;0.35;;;8.50;73.30;;;;;;5096459;28;20477;-73
2021/05/02 07:16:23;;;;;;;1.77;0.60;;;8.60;73.10;;;;;;5114371;28;20047;-73
2021/05/02 07:18:50;;;;;;;0.47;0.47;;;8.70;73.00;;;;;;5079951;28;20043;-73
2021/05/02 07:21:19;;;;;;;0.95;0.47;;;8.90;72.90;;;;;;5079644;28;20100;-73
2021/05/02 07:23:49;;;;;;;0.55;0.40;;;9.00;72.60;;;;;;5114506;28;20377;-74
2021/05/02 07:26:16;;;;;;;1.35;0.73;;;9.10;72.30;;;;;;5095052;28;20050;-74
2021/05/02 07:28:42;;;;;;;0.50;0.50;;;9.10;72.00;;;;;;5114375;28;20032;-73
2021/05/02 07:31:08;;;;;;;1.73;0.50;;;9.20;71.90;;;;;;5096168;28;20043;-73
2021/05/02 07:33:33;;;;;;;0.50;0.50;;;9.10;71.90;;;;;;5114092;28;20441;-73
2021/05/02 07:35:59;;;;;;;0.55;0.43;;;9.10;72.10;;;;;;5114199;28;20039;-74
2021/05/02 07:38:27;;;;;;;0.40;0.40;;;9.20;72.10;;;;;;5114010;28;20123;-73
2021/05/02 07:40:56;;;;;;;0.70;0.50;;;9.40;72.10;;;;;;5095981;28;20499;-73
2021/05/02 07:43:22;;;;;;;0.57;0.40;;;9.50;71.60;;;;;;5095827;28;20109;-73
2021/05/02 07:45:48;;;;;;;3.13;0.60;;;9.80;71.40;;;;;;5113898;28;20044;-74
2021/05/02 07:48:14;;;;;;;0.50;0.40;;;9.90;70.90;;;;;;5114349;28;20032;-73
2021/05/02 07:50:40;;;;;;;0.68;0.50;;;10.00;70.60;;;;;;5095827;28;20044;-74
2021/05/02 07:53:06;;;;;;;2.03;0.52;;;10.10;70.50;;;;;;5095711;28;20039;-73
2021/05/02 07:55:33;;;;;;;0.40;0.40;;;10.10;69.90;;;;;;5095795;28;20067;-73
2021/05/02 07:57:59;;;;;;;0.50;0.50;;;10.00;70.00;;;;;;5094205;28;20044;-73
2021/05/02 08:00:25;;;;;;;0.70;0.40;;;10.00;70.00;;;;;;5113730;28;20049;-73
2021/05/02 08:02:51;;;;;;;0.57;0.50;;;10.10;70.10;;;;;;5113688;28;20487;-73
2021/05/02 08:05:16;;;;;;;0.90;0.45;;;10.20;70.10;;;;;;5078395;28;20036;-73
2021/05/02 08:07:44;;;;;;;0.90;0.50;;;10.30;69.90;;;;;;5077672;28;20036;-74
2021/05/02 08:10:10;;;;;;;0.68;0.43;;;10.40;69.70;;;;;;5113613;28;20059;-74
2021/05/02 08:12:36;;;;;;;0.73;0.52;;;10.40;69.30;;;;;;5113414;28;20048;-74
2021/05/02 08:15:03;;;;;;;0.68;0.40;;;10.50;69.40;;;;;;5077748;28;20122;-73
2021/05/02 08:17:29;;;;;;;0.65;0.30;;;10.70;69.40;;;;;;5113399;28;20398;-73
2021/05/02 08:19:54;;;;;;;0.90;0.32;;;10.80;69.00;;;;;;5113302;28;20042;-73
2021/05/02 08:22:20;;;;;;;0.30;0.30;;;10.90;69.10;;;;;;5095505;28;20043;-73
2021/05/02 08:24:46;;;;;;;2.05;0.40;;;11.20;68.90;;;;;;5095186;28;20555;-74
2021/05/02 08:27:13;;;;;;;0.40;0.40;;;11.30;68.30;;;;;;5095094;28;20040;-73
2021/05/02 08:29:39;;;;;;;0.60;0.47;;;11.40;67.90;;;;;;5113693;28;20495;-74
2021/05/02 08:32:04;;;;;;;1.15;0.60;;;11.20;67.70;;;;;;5078064;28;20039;-73
2021/05/02 08:34:30;;;;;;;0.40;0.40;;;11.20;67.70;;;;;;5113566;28;20039;-73
2021/05/02 08:36:56;;;;;;;1.67;0.77;;;11.20;67.60;;;;;;5113003;28;20496;-74
2021/05/02 08:39:22;;;;;;;0.50;0.50;;;11.30;67.60;;;;;;5095216;28;20062;-73
2021/05/02 08:41:48;;;;;;;0.60;0.40;;;11.30;66.90;;;;;;5113033;28;20114;-74
2021/05/02 08:44:17;;;;;;;0.50;0.50;;;11.10;66.80;;;;;;5113040;28;20123;-75
2021/05/02 08:46:44;;;;;;;0.30;0.30;;;11.10;67.50;;;;;;5094623;28;20461;-73
2021/05/02 08:49:09;;;;;;;0.43;0.40;;;11.10;67.40;;;;;;5077839;28;20046;-73
2021/05/02 08:51:35;;;;;;;0.52;0.40;;;11.10;67.20;;;;;;5094664;28;20039;-73
2021/05/02 08:54:01;;;;;;;0.40;0.40;;;11.00;67.40;;;;;;5113211;28;20066;-73
2021/05/02 08:56:27;;;;;;;0.30;0.30;;;11.00;67.50;;;;;;5113388;28;20042;-74
2021/05/02 08:58:52;;;;;;;0.30;0.30;;;11.10;67.30;;;;;;5095654;28;20059;-76
2021/05/02 09:01:31;;;;;;;0.63;0.40;;;11.30;67.10;;;;;;5113701;28;20119;-74
2021/05/02 09:04:05;;;;;;;0.75;0.40;;;11.40;66.70;;;;;;5114597;28;20404;-76
2021/05/02 09:06:31;;;;;;;1.05;0.50;;;11.40;66.40;;;;;;5079042;28;20477;-75
2021/05/02 09:09:03;;;;;;;0.30;0.30;;;11.50;66.20;;;;;;5095945;28;20047;-74
2021/05/02 09:11:38;;;;;;;0.60;0.50;;;11.60;66.00;;;;;;5113334;28;20111;-74
2021/05/02 09:14:09;;;;;;;0.32;0.30;;;11.70;66.20;;;;;;5095660;28;20490;-74
2021/05/02 09:16:49;;;;;;;0.75;0.30;;;11.80;66.10;;;;;;5113314;28;20040;-73
2021/05/02 09:19:15;;;;;;;0.87;0.40;;;11.80;65.70;;;;;;5115411;28;20040;-74
2021/05/02 09:21:42;;;;;;;0.45;0.40;;;12.00;65.70;;;;;;5117054;28;20119;-75
2021/05/02 09:24:30;;;;;;;0.32;0.32;;;11.90;65.60;;;;;;5097915;28;20116;-74
2021/05/02 09:27:15;;;;;;;1.10;0.60;;;11.90;65.60;;;;;;5116602;28;20081;-74
2021/05/02 09:29:42;;;;;;;0.90;0.43;;;12.20;65.40;;;;;;5116904;28;20122;-74
2021/05/02 09:32:10;;;;;;;0.30;0.30;;;12.30;65.00;;;;;;5102657;28;20039;-75
2021/05/02 09:34:36;;;;;;;0.35;0.35;;;12.40;64.50;;;;;;5117394;28;20050;-74
2021/05/02 09:37:06;;;;;;;0.73;0.50;;;12.50;64.20;;;;;;5116148;28;20130;-73
2021/05/02 09:39:48;;;;;;;0.28;0.22;;;12.70;63.50;;;;;;5099397;28;20043;-73
2021/05/02 09:42:23;;;;;;;0.30;0.30;;;12.60;63.20;;;;;;5081491;28;20043;-72
2021/05/02 09:44:52;;;;;;;0.85;0.40;;;12.60;63.40;;;;;;5097963;28;20057;-73
2021/05/02 09:47:29;;;;;;;0.40;0.40;;;12.80;63.30;;;;;;5116786;28;20075;-73
2021/05/02 09:50:09;;;;;;;0.30;0.30;;;12.70;62.80;;;;;;5080966;28;20036;-72
2021/05/02 09:53:01;;;;;;;0.30;0.30;;;12.50;63.20;;;;;;5098096;28;20066;-73
2021/05/02 09:55:32;;;;;;;0.32;0.32;;;12.30;63.80;;;;;;5098148;28;20419;-73
2021/05/02 09:58:10;;;;;;;0.47;0.25;;;12.20;64.00;;;;;;5115735;28;20112;-73
2021/05/02 10:00:39;;;;;;;0.35;0.35;;;11.90;64.60;;;;;;5116770;28;20054;-74
2021/05/02 10:03:10;;;;;;;0.45;0.38;;;11.60;64.90;;;;;;5097825;28;20386;-73
2021/05/02 10:05:51;;;;;;;0.30;0.30;;;11.50;65.20;;;;;;5099434;28;20431;-73
2021/05/02 10:08:19;;;;;;;0.35;0.32;;;11.40;65.60;;;;;;5097855;28;20047;-73
2021/05/02 10:10:45;;;;;;;0.57;0.40;;;11.30;65.50;;;;;;5118355;28;20039;-73
2021/05/02 10:13:12;;;;;;;0.30;0.30;;;11.30;65.50;;;;;;5098782;28;20130;-75
2021/05/02 10:15:38;;;;;;;1.00;0.43;;;11.20;65.30;;;;;;5101839;28;20428;-76
2021/05/02 10:18:04;;;;;;;0.93;0.50;;;11.10;65.10;;;;;;5119711;28;20039;-74
2021/05/02 10:20:30;;;;;;;1.20;0.40;;;11.10;65.10;;;;;;5098444;28;20173;-74
2021/05/02 10:22:56;;;;;;;1.20;0.40;;;11.00;65.00;;;;;;5097212;28;20464;-73
2021/05/02 10:25:22;;;;;;;2.15;0.50;;;11.00;65.00;;;;;;5116450;28;20036;-75
2021/05/02 10:27:50;;;;;;;0.40;0.40;;;11.10;65.60;;;;;;5116864;28;20035;-75
2021/05/02 10:30:25;;;;;;;0.50;0.30;;;11.30;64.90;;;;;;5117149;28;20401;-73
2021/05/02 10:33:00;;;;;;;0.30;0.17;;;11.60;64.40;;;;;;5117327;28;20052;-74
2021/05/02 10:35:43;;;;;;;0.30;0.30;;;11.80;63.70;;;;;;5117552;28;20530;-75
2021/05/02 10:38:10;;;;;;;1.27;0.40;;;11.80;63.00;;;;;;5097943;28;20043;-75
2021/05/02 10:40:37;;;;;;;0.75;0.45;;;11.90;63.40;;;;;;5098457;28;20040;-74
2021/05/02 10:43:07;;;;;;;0.63;0.30;;;12.10;63.20;;;;;;5117319;28;20122;-75
2021/05/02 10:45:37;;;;;;;0.32;0.32;;;12.40;62.70;;;;;;5118680;28;20096;-75
2021/05/02 10:48:06;;;;;;;0.30;0.30;;;12.50;61.70;;;;;;5083518;28;20097;-75
2021/05/02 10:50:49;;;;;;;0.40;0.40;;;12.30;61.60;;;;;;5117297;28;20501;-74
2021/05/02 10:53:17;;;;;;;0.40;0.40;;;12.20;61.90;;;;;;5103472;28;20035;-75
2021/05/02 10:56:02;;;;;;;0.32;0.30;;;12.20;61.90;;;;;;5099375;28;20046;-75
2021/05/02 10:58:30;;;;;;;0.40;0.40;;;12.20;61.60;;;;;;5098134;28;20501;-75
2021/05/02 11:01:03;;;;;;;0.50;0.40;;;12.10;61.70;;;;;;5064068;28;20047;-76
2021/05/02 11:03:53;;;;;;;0.60;0.35;;;12.10;61.90;;;;;;5096372;28;20044;-74
2021/05/02 11:06:52;;;;;;;0.30;0.30;;;12.10;61.80;;;;;;5100675;28;20457;-74
2021/05/02 11:09:19;;;;;;;0.40;0.40;;;12.10;61.80;;;;;;5115655;28;20032;-75
2021/05/02 11:11:49;;;;;;;0.30;0.30;;;12.30;61.60;;;;;;5115167;28;20043;-75
2021/05/02 11:14:35;;;;;;;0.30;0.30;;;12.30;61.30;;;;;;5111812;28;20549;-74
2021/05/02 11:17:22;;;;;;;0.77;0.50;;;12.10;61.10;;;;;;5115427;28;20039;-74
2021/05/02 11:19:48;;;;;;;0.30;0.30;;;12.10;61.30;;;;;;5096626;28;20040;-74
2021/05/02 11:22:15;;;;;;;0.30;0.30;;;12.00;61.50;;;;;;5115053;28;20062;-75
2021/05/02 11:24:52;;;;;;;0.80;0.30;;;11.80;61.60;;;;;;5115079;28;20043;-75
2021/05/02 11:27:38;;;;;;;0.30;0.30;;;11.60;61.80;;;;;;5079968;28;20477;-74
2021/05/02 11:30:25;;;;;;;0.35;0.35;;;11.50;62.10;;;;;;5114565;28;20034;-74
2021/05/02 11:32:51;;;;;;;0.30;0.30;;;11.40;62.20;;;;;;5095917;28;20040;-74
2021/05/02 11:35:20;;;;;;;0.40;0.40;;;11.30;62.40;;;;;;5096682;28;20071;-75
2021/05/02 11:38:05;;;;;;;0.45;0.30;;;11.20;62.50;;;;;;5114059;28;20115;-74
2021/05/02 11:40:37;;;;;;;0.47;0.40;;;11.20;62.40;;;;;;5114226;28;20039;-74
2021/05/02 11:43:16;;;;;;;0.30;0.30;;;11.30;62.50;;;;;;5112768;28;20040;-74
2021/05/02 11:45:47;;;;;;;0.45;0.40;;;11.20;62.40;;;;;;5095130;28;20047;-74
2021/05/02 11:48:28;;;;;;;0.20;0.20;;;11.20;62.50;;;;;;5114506;28;20043;-74
2021/05/02 11:51:00;;;;;;;0.30;0.30;;;11.20;62.60;;;;;;5113783;28;20077;-74
2021/05/02 11:53:42;;;;;;;0.55;0.30;;;11.20;62.70;;;;;;5113759;28;20043;-74
2021/05/02 11:56:13;;;;;;;0.40;0.30;;;11.10;62.80;;;;;;5113924;28;20040;-74
2021/05/02 11:58:39;;;;;;;0.47;0.32;;;11.00;62.90;;;;;;5113849;28;20165;-74
2021/05/02 12:01:12;;;;;;;1.48;0.30;;;11.10;63.00;;;;;;5113673;28;20039;-74
2021/05/02 12:03:39;;;;;;;0.25;0.25;;;11.30;63.00;;;;;;5078564;28;20043;-74
2021/05/02 12:06:08;;;;;;;1.08;0.40;;;11.30;62.80;;;;;;5114244;28;20123;-74
2021/05/02 12:08:34;;;;;;;0.32;0.30;;;11.20;62.90;;;;;;5113492;28;20567;-74
2021/05/02 12:11:04;;;;;;;0.70;0.38;;;11.20;63.20;;;;;;5095198;28;20043;-74
2021/05/02 12:13:36;;;;;;;0.30;0.30;;;11.10;63.20;;;;;;5113977;28;20042;-74
2021/05/02 12:16:08;;;;;;;0.25;0.25;;;11.20;63.50;;;;;;5113834;28;20075;-76
2021/05/02 12:19:00;;;;;;;0.45;0.40;;;11.30;63.40;;;;;;5113991;28;20039;-74
2021/05/02 12:21:27;;;;;;;;;;;11.50;63.20;;;;;;5095597;28;20071;-74
2021/05/02 12:24:03;;;;;;;0.40;0.40;;;11.80;62.80;;;;;;5093494;28;19965;-74
2021/05/02 12:26:30;;;;;;;0.20;0.20;;;11.80;62.20;;;;;;5095415;28;20051;-74
2021/05/02 12:28:59;;;;;;;0.22;0.22;;;11.80;62.20;;;;;;5113885;28;20031;-74
2021/05/02 12:31:26;;;;;;;0.50;0.50;;;11.80;62.40;;;;;;5113726;28;20063;-75
2021/05/02 12:33:51;;;;;;;0.63;0.50;;;11.90;62.10;;;;;;5113331;28;20074;-74
2021/05/02 12:36:18;;;;;;;0.35;0.35;;;11.80;62.00;;;;;;5094352;28;20062;-74
2021/05/02 12:38:44;;;;;;;1.42;0.50;;;11.80;62.00;;;;;;5113357;28;20050;-74
2021/05/02 12:41:19;;;;;;;0.68;0.40;;;11.90;61.70;;;;;;5113165;28;20126;-74
2021/05/02 12:43:48;;;;;;;0.35;0.30;;;11.90;61.50;;;;;;5113479;28;20040;-76
2021/05/02 12:46:40;;;;;;;0.38;0.38;;;12.00;61.10;;;;;;5094762;28;20043;-75
2021/05/02 12:49:09;;;;;;;0.57;0.50;;;12.00;60.90;;;;;;5113116;28;20378;-74
2021/05/02 12:51:35;;;;;;;0.40;0.40;;;11.90;60.80;;;;;;5094925;28;20047;-75
2021/05/02 12:54:11;;;;;;;0.40;0.40;;;11.80;60.90;;;;;;5077872;28;20067;-74
2021/05/02 12:56:38;;;;;;;0.35;0.30;;;11.80;60.80;;;;;;5094814;28;20464;-75
2021/05/02 12:59:28;;;;;;;0.40;0.40;;;11.80;60.90;;;;;;5094549;28;20047;-74
2021/05/02 13:02:10;;;;;;;0.40;0.40;;;11.70;61.30;;;;;;5113266;28;20059;-75